Time;durP1;ratioP1;P1;durP2;ratioP2;P2;SDS_P1;SDS_P2;PMS_P1;PMS_P2;Temp;Humidity;BMP_temperature;BMP_pressure;BME280_temperature;BME280_humidity;BME280_pressure;Samples;Min_cycle;Max_cycle;Signal;HPM_P1;HPM_P2
2024/01/09 00:01:31;;;;;;;0.50;0.10;;;-4.20;1.00;;;;;;5011249;28;20484;-72
2024/01/09 00:03:59;;;;;;;2.10;1.37;;;-4.20;1.00;;;;;;5022689;28;20483;-71
2024/01/09 00:06:27;;;;;;;1.83;1.73;;;-4.30;1.00;;;;;;4995313;28;20511;-70
2024/01/09 00:08:58;;;;;;;2.67;1.83;;;;;;;;;;4994555;28;20507;-68
2024/01/09 00:11:26;;;;;;;2.07;1.90;;;-4.20;1.00;;;;;;4995087;28;20545;-71
2024/01/09 00:13:55;;;;;;;4.13;1.97;;;-4.20;1.00;;;;;;5004116;28;20463;-71
2024/01/09 00:16:23;;;;;;;1.60;1.20;;;-4.20;1.00;;;;;;5011134;28;20476;-72
2024/01/09 00:18:53;;;;;;;3.77;3.23;;;-4.30;1.00;;;;;;5010443;28;20970;-71
2024/01/09 00:21:21;;;;;;;0.93;0.93;;;-4.30;1.00;;;;;;5008324;28;20494;-71
2024/01/09 00:23:49;;;;;;;4.37;3.40;;;-4.40;1.00;;;;;;4999092;28;20448;-71
2024/01/09 00:26:17;;;;;;;1.93;1.70;;;-4.40;1.00;;;;;;5006577;28;20448;-71
2024/01/09 00:28:45;;;;;;;1.10;0.87;;;-4.40;1.00;;;;;;4997971;28;20441;-71
2024/01/09 00:31:14;;;;;;;1.70;1.47;;;-4.40;1.00;;;;;;4998157;28;20888;-71
2024/01/09 00:33:42;;;;;;;3.37;1.17;;;-4.40;1.00;;;;;;4997772;28;20931;-71
2024/01/09 00:36:10;;;;;;;2.83;2.03;;;;;;;;;;5001315;28;20461;-71
2024/01/09 00:38:38;;;;;;;4.60;4.17;;;-4.50;1.00;;;;;;5004138;28;20440;-71
2024/01/09 00:41:06;;;;;;;4.30;2.50;;;;;;;;;;5016239;28;20515;-71
2024/01/09 00:43:35;;;;;;;1.33;0.97;;;;;;;;;;5013852;28;20445;-71
2024/01/09 00:46:03;;;;;;;7.40;3.90;;;-4.50;1.00;;;;;;5006666;28;20547;-70
2024/01/09 00:48:32;;;;;;;4.57;3.10;;;-4.50;1.00;;;;;;5005582;28;21006;-71
2024/01/09 00:51:00;;;;;;;2.70;1.27;;;;;;;;;;4998559;28;20495;-70
2024/01/09 00:53:28;;;;;;;0.83;0.50;;;-4.50;1.00;;;;;;5006232;28;20471;-70
2024/01/09 00:55:57;;;;;;;1.67;1.23;;;;;;;;;;5014229;28;20534;-70
2024/01/09 00:58:25;;;;;;;3.43;2.40;;;-4.50;1.00;;;;;;5017165;28;20499;-71
2024/01/09 01:00:53;;;;;;;3.83;3.57;;;;;;;;;;5008668;28;21010;-71
2024/01/09 01:03:21;;;;;;;1.90;1.33;;;-4.50;1.00;;;;;;4997276;28;21003;-70
2024/01/09 01:05:51;;;;;;;0.70;0.60;;;-4.60;1.00;;;;;;4997572;28;20452;-69
2024/01/09 01:08:20;;;;;;;5.73;1.87;;;;;;;;;;5008948;28;20498;-70
2024/01/09 01:10:48;;;;;;;1.23;0.63;;;;;;;;;;5017263;28;20435;-71
2024/01/09 01:13:16;;;;;;;5.13;3.63;;;-4.50;1.00;;;;;;5008925;28;20491;-71
2024/01/09 01:15:43;;;;;;;3.37;1.60;;;-4.50;1.00;;;;;;5004594;28;20550;-70
2024/01/09 01:18:11;;;;;;;1.03;1.03;;;-4.50;1.00;;;;;;4999210;28;20506;-70
2024/01/09 01:20:39;;;;;;;1.90;1.17;;;-4.50;1.00;;;;;;4998054;28;20482;-70
2024/01/09 01:23:09;;;;;;;2.07;1.87;;;-4.50;1.00;;;;;;5006323;28;20440;-70
2024/01/09 01:25:37;;;;;;;3.67;3.37;;;-4.50;1.00;;;;;;4998116;28;20456;-69
2024/01/09 01:28:06;;;;;;;1.50;1.40;;;;;;;;;;4997437;28;20844;-70
2024/01/09 01:30:34;;;;;;;4.17;2.27;;;;;;;;;;4997784;28;20265;-70
2024/01/09 01:33:02;;;;;;;2.27;2.03;;;-4.60;1.00;;;;;;5006168;28;20932;-70
2024/01/09 01:35:30;;;;;;;0.97;0.83;;;-4.60;1.00;;;;;;5004089;28;20835;-70
2024/01/09 01:37:58;;;;;;;0.77;0.50;;;-4.60;1.00;;;;;;4996742;28;20472;-71
2024/01/09 01:40:27;;;;;;;4.20;3.10;;;-4.60;1.00;;;;;;4997570;28;20531;-71
2024/01/09 01:42:57;;;;;;;2.60;1.10;;;-4.60;1.00;;;;;;4997530;28;20995;-70
2024/01/09 01:45:25;;;;;;;1.93;1.53;;;-4.60;1.00;;;;;;5004610;28;20541;-71
2024/01/09 01:47:53;;;;;;;0.60;0.40;;;-4.60;1.00;;;;;;5003589;28;20574;-70
2024/01/09 01:50:22;;;;;;;1.67;1.57;;;-4.50;1.00;;;;;;5002081;28;20502;-70
2024/01/09 01:52:51;;;;;;;7.77;6.77;;;-4.50;1.00;;;;;;4997322;28;20469;-69
2024/01/09 01:55:24;;;;;;;0.50;0.23;;;-4.50;1.00;;;;;;4996899;28;20445;-70
2024/01/09 01:57:56;;;;;;;1.10;0.60;;;-4.50;1.00;;;;;;4995751;28;20473;-71
2024/01/09 02:00:25;;;;;;;8.53;3.90;;;-4.50;1.00;;;;;;5007875;28;20825;-71
2024/01/09 02:02:54;;;;;;;4.10;2.10;;;-4.60;1.00;;;;;;5015629;28;20507;-70
2024/01/09 02:05:25;;;;;;;2.20;2.10;;;-4.60;1.00;;;;;;5014472;28;20448;-71
2024/01/09 02:07:54;;;;;;;1.43;1.33;;;-4.60;1.00;;;;;;4999581;28;20515;-70
2024/01/09 02:10:23;;;;;;;0.60;0.20;;;-4.60;1.00;;;;;;5007814;28;20498;-71
2024/01/09 02:12:51;;;;;;;0.80;0.80;;;-4.60;1.00;;;;;;5012247;28;20481;-71
2024/01/09 02:15:21;;;;;;;2.93;2.17;;;-4.60;1.00;;;;;;5003863;28;20995;-70
2024/01/09 02:17:49;;;;;;;3.20;2.97;;;-4.60;1.00;;;;;;5003954;28;20560;-70
2024/01/09 02:20:20;;;;;;;0.70;0.30;;;-4.60;1.00;;;;;;5014859;28;20447;-70
2024/01/09 02:22:48;;;;;;;1.37;0.87;;;-4.60;1.00;;;;;;5014585;28;20541;-70
2024/01/09 02:25:17;;;;;;;0.60;0.43;;;-4.50;1.00;;;;;;4999441;28;20448;-70
2024/01/09 02:28:01;;;;;;;4.53;0.93;;;-4.60;1.00;;;;;;5007580;28;20291;-70
2024/01/09 02:30:31;;;;;;;2.57;2.37;;;-4.50;1.00;;;;;;5011378;28;20445;-70
2024/01/09 02:33:00;;;;;;;0.60;0.50;;;;;;;;;;5010007;28;20545;-70
2024/01/09 02:35:28;;;;;;;2.30;0.97;;;-4.60;1.00;;;;;;5011186;28;20513;-70
2024/01/09 02:37:56;;;;;;;1.13;0.83;;;-4.60;1.00;;;;;;4995172;28;20469;-70
2024/01/09 02:40:24;;;;;;;1.23;1.13;;;;;;;;;;5005924;28;20583;-70
2024/01/09 02:42:52;;;;;;;0.80;0.70;;;-4.70;1.00;;;;;;5000015;28;20773;-70
2024/01/09 02:45:20;;;;;;;3.63;2.05;;;-4.60;1.00;;;;;;4995220;28;20503;-70
2024/01/09 02:47:49;;;;;;;4.03;1.17;;;-4.60;1.00;;;;;;4994339;28;20689;-70
2024/01/09 02:50:18;;;;;;;1.00;0.77;;;-4.60;1.00;;;;;;5003381;28;20444;-70
2024/01/09 02:52:45;;;;;;;0.70;0.60;;;-4.60;1.00;;;;;;5000820;28;20472;-70
2024/01/09 02:55:14;;;;;;;3.33;1.70;;;-4.60;1.00;;;;;;5006163;28;20880;-70
2024/01/09 02:57:42;;;;;;;0.50;0.10;;;-4.60;1.00;;;;;;5006942;28;20503;-70
2024/01/09 03:00:10;;;;;;;0.50;0.30;;;-4.60;1.00;;;;;;5011819;28;20495;-70
2024/01/09 03:02:38;;;;;;;4.23;1.80;;;-4.50;1.00;;;;;;5014110;28;20475;-70
2024/01/09 03:05:09;;;;;;;7.50;2.33;;;-4.60;1.00;;;;;;4996324;28;20824;-70
2024/01/09 03:07:37;;;;;;;4.50;3.53;;;-4.60;1.00;;;;;;4993691;28;20475;-71
2024/01/09 03:10:06;;;;;;;1.70;1.03;;;-4.50;1.00;;;;;;4995102;28;20448;-70
2024/01/09 03:12:35;;;;;;;0.70;0.57;;;-4.50;1.00;;;;;;5005569;28;20510;-70
2024/01/09 03:15:02;;;;;;;1.43;1.30;;;-4.50;1.00;;;;;;5013145;28;20444;-70
2024/01/09 03:17:31;;;;;;;4.67;4.37;;;;;;;;;;5013129;28;20587;-70
2024/01/09 03:19:59;;;;;;;12.53;2.37;;;;;;;;;;4997040;28;20445;-70
2024/01/09 03:22:29;;;;;;;2.00;1.47;;;-4.60;1.00;;;;;;4997417;28;20990;-71
2024/01/09 03:24:57;;;;;;;0.60;0.30;;;-4.50;1.00;;;;;;4997581;28;20531;-70
2024/01/09 03:27:26;;;;;;;6.00;1.30;;;-4.50;1.00;;;;;;5005234;28;20554;-69
2024/01/09 03:29:54;;;;;;;4.53;2.07;;;-4.50;1.00;;;;;;5007166;28;20466;-69
2024/01/09 03:32:22;;;;;;;1.17;1.07;;;-4.60;1.00;;;;;;5005664;28;20467;-71
2024/01/09 03:34:50;;;;;;;1.03;0.70;;;-4.60;1.00;;;;;;5010534;28;20531;-71
2024/01/09 03:37:18;;;;;;;2.93;2.73;;;;;;;;;;5003297;28;20509;-69
2024/01/09 03:39:47;;;;;;;1.47;0.87;;;-4.70;1.00;;;;;;4994695;28;20457;-69
2024/01/09 03:42:15;;;;;;;4.87;3.47;;;-4.70;1.00;;;;;;4995994;28;20483;-69
2024/01/09 03:44:43;;;;;;;7.07;3.17;;;;;;;;;;5004764;28;20471;-70
2024/01/09 03:47:12;;;;;;;0.70;0.60;;;-4.80;1.00;;;;;;4995474;28;20472;-69
2024/01/09 03:49:40;;;;;;;3.07;1.80;;;;;;;;;;4993811;28;20445;-70
2024/01/09 03:52:10;;;;;;;4.43;2.53;;;-4.80;1.00;;;;;;4993448;28;20464;-69
2024/01/09 03:54:38;;;;;;;1.80;0.70;;;-4.90;1.00;;;;;;4998390;28;20811;-70
2024/01/09 03:57:08;;;;;;;1.63;0.83;;;-4.90;1.00;;;;;;4996067;28;20476;-72
2024/01/09 03:59:35;;;;;;;1.77;1.67;;;-4.80;1.00;;;;;;5004097;28;20456;-70
2024/01/09 04:02:04;;;;;;;1.00;0.57;;;-4.80;1.00;;;;;;5004631;28;20463;-70
2024/01/09 04:04:32;;;;;;;1.60;1.50;;;-4.80;1.00;;;;;;5001148;28;20447;-70
2024/01/09 04:07:00;;;;;;;4.43;1.30;;;;;;;;;;4992729;28;20472;-70
2024/01/09 04:09:28;;;;;;;7.57;1.70;;;;;;;;;;5004473;28;20498;-70
2024/01/09 04:11:56;;;;;;;1.77;1.67;;;-4.80;1.00;;;;;;5012319;28;20454;-70
2024/01/09 04:14:26;;;;;;;1.83;1.63;;;-4.90;1.00;;;;;;4996461;28;20444;-69
2024/01/09 04:16:54;;;;;;;10.70;3.87;;;-4.90;1.00;;;;;;4999773;28;20474;-70
2024/01/09 04:19:21;;;;;;;2.67;1.80;;;-5.00;1.00;;;;;;5000127;28;20539;-69
2024/01/09 04:21:50;;;;;;;4.07;2.57;;;;;;;;;;4993019;28;20450;-69
2024/01/09 04:24:18;;;;;;;0.50;0.20;;;-5.10;1.00;;;;;;4993477;28;20550;-70
2024/01/09 04:26:46;;;;;;;11.50;3.83;;;;;;;;;;4992688;28;20555;-69
2024/01/09 04:29:14;;;;;;;1.20;0.90;;;-5.10;1.00;;;;;;4992946;28;20440;-70
2024/01/09 04:31:43;;;;;;;0.87;0.70;;;-5.10;1.00;;;;;;4993238;28;20448;-70
2024/01/09 04:34:11;;;;;;;3.37;1.43;;;-5.00;1.00;;;;;;4997714;28;20535;-70
2024/01/09 04:36:39;;;;;;;0.50;0.20;;;;;;;;;;5008079;28;20500;-71
2024/01/09 04:39:07;;;;;;;0.90;0.73;;;-5.00;1.00;;;;;;4993233;28;20453;-70
2024/01/09 04:41:35;;;;;;;4.33;1.90;;;-5.10;1.00;;;;;;5003126;28;20820;-70
2024/01/09 04:44:03;;;;;;;5.23;2.40;;;;;;;;;;4992484;28;20491;-69
2024/01/09 04:46:31;;;;;;;0.77;0.50;;;-5.10;1.00;;;;;;5000740;28;20808;-70
2024/01/09 04:49:03;;;;;;;4.00;2.27;;;-5.20;1.00;;;;;;5000853;28;20440;-70
2024/01/09 04:51:32;;;;;;;2.10;1.70;;;;;;;;;;5004644;28;20443;-70
2024/01/09 04:53:59;;;;;;;3.70;2.10;;;-5.10;1.00;;;;;;5012591;28;20439;-70
2024/01/09 04:56:28;;;;;;;0.50;0.20;;;;;;;;;;5012060;28;20538;-70
2024/01/09 04:58:56;;;;;;;4.20;2.57;;;-5.00;1.00;;;;;;5003369;28;20463;-70
2024/01/09 05:01:23;;;;;;;0.60;0.40;;;-5.00;1.00;;;;;;5008400;28;21346;-70
2024/01/09 05:03:53;;;;;;;1.83;1.30;;;-5.10;1.00;;;;;;4999775;28;20576;-70
2024/01/09 05:06:22;;;;;;;0.57;0.30;;;-5.00;1.00;;;;;;4999450;28;20452;-69
2024/01/09 05:08:50;;;;;;;0.80;0.50;;;-5.00;1.00;;;;;;4997896;28;20448;-70
2024/01/09 05:11:18;;;;;;;2.90;1.27;;;-5.00;1.00;;;;;;4997094;28;20456;-70
2024/01/09 05:13:47;;;;;;;0.60;0.60;;;-5.00;1.00;;;;;;5015203;28;20935;-70
2024/01/09 05:16:15;;;;;;;1.83;0.60;;;-5.10;1.00;;;;;;4998468;28;20454;-70
2024/01/09 05:18:44;;;;;;;1.37;1.07;;;-5.10;1.00;;;;;;5013747;28;20868;-70
2024/01/09 05:21:12;;;;;;;1.07;0.83;;;-5.10;1.00;;;;;;5005984;28;20508;-69
2024/01/09 05:23:41;;;;;;;1.57;1.07;;;-5.10;1.00;;;;;;5003564;28;20567;-69
2024/01/09 05:26:10;;;;;;;0.70;0.60;;;-5.00;1.00;;;;;;5003641;28;20452;-70
2024/01/09 05:28:38;;;;;;;6.20;1.23;;;-5.00;1.00;;;;;;5010398;28;20480;-69
2024/01/09 05:31:06;;;;;;;2.43;1.10;;;;;;;;;;5002695;28;20803;-70
2024/01/09 05:33:35;;;;;;;2.03;1.20;;;-5.00;1.00;;;;;;5008133;28;20456;-70
2024/01/09 05:36:04;;;;;;;7.70;2.00;;;-5.00;1.00;;;;;;5006607;28;20543;-70
2024/01/09 05:38:32;;;;;;;3.83;1.13;;;;;;;;;;4994614;28;20901;-70
2024/01/09 05:41:02;;;;;;;1.90;1.30;;;-5.00;1.00;;;;;;5004359;28;20471;-69
2024/01/09 05:43:30;;;;;;;2.63;1.70;;;-5.00;1.00;;;;;;4994562;28;20484;-70
2024/01/09 05:45:57;;;;;;;0.90;0.63;;;-5.00;1.00;;;;;;5000589;28;20548;-70
2024/01/09 05:48:25;;;;;;;1.30;1.20;;;-5.10;1.00;;;;;;5012552;28;20574;-70
2024/01/09 05:50:54;;;;;;;2.27;1.80;;;;;;;;;;5009264;28;20577;-70
2024/01/09 05:53:22;;;;;;;4.40;1.87;;;;;;;;;;5006126;28;20444;-70
2024/01/09 05:55:51;;;;;;;1.63;0.83;;;;;;;;;;5006073;28;20860;-70
2024/01/09 05:58:20;;;;;;;4.43;1.70;;;-5.10;1.00;;;;;;4995996;28;20474;-70
2024/01/09 06:00:48;;;;;;;2.90;1.23;;;-5.10;1.00;;;;;;5002867;28;20461;-69
2024/01/09 06:03:16;;;;;;;3.43;3.17;;;;;;;;;;5002513;28;20487;-70
2024/01/09 06:05:44;;;;;;;6.27;1.77;;;-5.20;1.00;;;;;;5000814;28;20954;-69
2024/01/09 06:08:14;;;;;;;1.27;1.17;;;-5.20;1.00;;;;;;5010628;28;20493;-71
2024/01/09 06:10:42;;;;;;;5.03;1.53;;;-5.20;1.00;;;;;;5005304;28;20991;-71
2024/01/09 06:13:10;;;;;;;2.07;0.97;;;;;;;;;;5000182;28;20551;-70
2024/01/09 06:15:40;;;;;;;0.80;0.80;;;-5.30;1.00;;;;;;5001528;28;20958;-70
2024/01/09 06:18:07;;;;;;;1.67;1.10;;;-5.10;1.00;;;;;;4994055;28;20557;-69
2024/01/09 06:20:36;;;;;;;2.05;1.85;;;-5.10;1.00;;;;;;5001911;28;20212;-71
2024/01/09 06:23:04;;;;;;;2.00;1.80;;;-5.10;1.00;;;;;;5009960;28;20443;-70
2024/01/09 06:25:32;;;;;;;0.60;0.50;;;-5.10;1.00;;;;;;5024104;28;20436;-71
2024/01/09 06:28:00;;;;;;;3.47;2.47;;;-5.10;1.00;;;;;;5019619;28;20552;-71
2024/01/09 06:30:28;;;;;;;2.67;0.80;;;-5.10;1.00;;;;;;5008633;28;20564;-70
2024/01/09 06:32:58;;;;;;;2.43;0.57;;;;;;;;;;5015024;28;20712;-71
2024/01/09 06:35:26;;;;;;;1.55;1.45;;;-5.00;1.00;;;;;;4997466;28;20463;-70
2024/01/09 06:37:54;;;;;;;2.20;1.70;;;;;;;;;;5010386;28;20224;-71
2024/01/09 06:40:23;;;;;;;1.17;0.63;;;-5.10;1.00;;;;;;5006459;28;20459;-69
2024/01/09 06:42:52;;;;;;;11.00;2.60;;;-5.10;1.00;;;;;;4999108;28;20460;-70
2024/01/09 06:45:20;;;;;;;0.60;0.40;;;;;;;;;;5000847;28;20484;-71
2024/01/09 06:47:48;;;;;;;1.53;1.43;;;-5.10;1.00;;;;;;4992618;28;20673;-72
2024/01/09 06:50:18;;;;;;;2.17;0.97;;;-5.10;1.00;;;;;;5000167;28;20491;-70
2024/01/09 06:53:00;;;;;;;2.40;2.20;;;;;;;;;;5011242;28;20459;-70
2024/01/09 06:55:29;;;;;;;4.03;3.63;;;-5.10;1.00;;;;;;5003406;28;20484;-70
2024/01/09 06:57:57;;;;;;;1.30;1.20;;;-5.10;1.00;;;;;;5004985;28;20563;-70
2024/01/09 07:00:25;;;;;;;2.50;0.97;;;-5.00;1.00;;;;;;5001736;28;21002;-71
2024/01/09 07:02:52;;;;;;;4.10;1.53;;;-5.30;1.00;;;;;;5003850;28;20464;-72
2024/01/09 07:05:22;;;;;;;0.50;0.10;;;-5.00;1.00;;;;;;4991605;28;20481;-70
2024/01/09 07:07:50;;;;;;;3.50;1.67;;;-5.00;1.00;;;;;;4991837;28;20457;-71
2024/01/09 07:10:18;;;;;;;7.30;5.93;;;;;;;;;;4993772;28;20453;-70
2024/01/09 07:12:47;;;;;;;2.60;1.80;;;;;;;;;;4993574;28;20441;-71
2024/01/09 07:15:15;;;;;;;2.33;1.20;;;;;;;;;;4993541;28;20441;-70
2024/01/09 07:17:45;;;;;;;1.00;0.70;;;-5.00;1.00;;;;;;4993492;28;21014;-71
2024/01/09 07:20:15;;;;;;;5.97;3.13;;;;;;;;;;4995440;28;20448;-71
2024/01/09 07:22:45;;;;;;;2.53;1.80;;;-5.10;1.00;;;;;;5013025;28;20440;-71
2024/01/09 07:25:16;;;;;;;1.70;1.60;;;-5.10;1.00;;;;;;5013756;28;20506;-70
2024/01/09 07:27:44;;;;;;;3.40;1.47;;;;;;;;;;5012406;28;21008;-70
2024/01/09 07:30:13;;;;;;;3.27;2.97;;;-5.10;1.00;;;;;;5012737;28;20447;-71
2024/01/09 07:32:41;;;;;;;1.83;1.63;;;-5.10;1.00;;;;;;5012978;28;20448;-69
2024/01/09 07:35:16;;;;;;;3.13;1.60;;;-5.10;1.00;;;;;;5012024;28;20475;-69
2024/01/09 07:37:46;;;;;;;1.17;0.40;;;-5.10;1.00;;;;;;5010987;28;20483;-69
2024/01/09 07:40:14;;;;;;;0.50;0.10;;;-5.10;1.00;;;;;;5013105;28;20497;-69
2024/01/09 07:42:42;;;;;;;2.50;0.70;;;-5.00;1.00;;;;;;5012478;28;20240;-71
2024/01/09 07:45:28;;;;;;;0.80;0.47;;;;;;;;;;5013829;28;20482;-69
2024/01/09 07:47:56;;;;;;;5.53;2.97;;;-5.00;1.00;;;;;;5014479;28;20225;-70
2024/01/09 07:50:25;;;;;;;1.53;1.13;;;;;;;;;;5011989;28;20947;-70
2024/01/09 07:52:54;;;;;;;2.50;1.87;;;-5.00;1.00;;;;;;5011783;28;20770;-70
2024/01/09 07:55:22;;;;;;;1.90;1.23;;;;;;;;;;5011530;28;20563;-70
2024/01/09 07:57:50;;;;;;;1.70;1.10;;;-5.00;1.00;;;;;;5011941;28;20471;-70
2024/01/09 08:00:18;;;;;;;5.90;1.93;;;-4.90;1.00;;;;;;5012106;28;20473;-70
2024/01/09 08:02:46;;;;;;;7.17;2.00;;;-4.90;1.00;;;;;;5011966;28;20506;-71
2024/01/09 08:05:14;;;;;;;1.88;1.77;;;;;;;;;;4993404;28;20484;-71
2024/01/09 08:07:43;;;;;;;6.40;1.83;;;;;;;;;;4992170;28;20221;-70
2024/01/09 08:10:12;;;;;;;1.90;1.23;;;-4.90;1.00;;;;;;4992780;28;20541;-70
2024/01/09 08:12:42;;;;;;;4.87;2.50;;;;;;;;;;4992426;28;20865;-70
2024/01/09 08:15:10;;;;;;;1.63;1.40;;;-4.90;1.00;;;;;;4992190;28;21007;-72
2024/01/09 08:17:38;;;;;;;1.53;0.77;;;;;;;;;;4991870;28;20539;-70
2024/01/09 08:20:07;;;;;;;2.03;1.77;;;-4.80;1.00;;;;;;4991846;28;20508;-70
2024/01/09 08:22:36;;;;;;;2.00;0.93;;;;;;;;;;4992229;28;20533;-71
2024/01/09 08:25:04;;;;;;;2.20;1.43;;;-4.80;1.00;;;;;;4992480;28;20477;-70
2024/01/09 08:27:33;;;;;;;3.60;1.03;;;-4.70;1.00;;;;;;4991981;28;20460;-70
2024/01/09 08:30:01;;;;;;;0.50;0.20;;;-4.70;1.00;;;;;;4991750;28;20932;-70
2024/01/09 08:32:30;;;;;;;2.70;1.20;;;;;;;;;;4992768;28;20832;-71
2024/01/09 08:34:58;;;;;;;0.70;0.40;;;;;;;;;;4992633;28;20447;-70
2024/01/09 08:37:26;;;;;;;1.70;1.57;;;;;;;;;;4994661;28;20480;-70
2024/01/09 08:39:54;;;;;;;1.90;0.77;;;-4.50;1.00;;;;;;5011834;28;20543;-70
2024/01/09 08:42:23;;;;;;;1.73;0.87;;;;;;;;;;5011591;28;20448;-70
2024/01/09 08:44:52;;;;;;;2.47;1.40;;;-4.40;1.00;;;;;;5011991;28;20534;-71
2024/01/09 08:47:20;;;;;;;2.50;1.50;;;-4.40;1.00;;;;;;5015181;28;20229;-70
2024/01/09 08:49:48;;;;;;;0.50;0.10;;;-4.40;1.00;;;;;;5015922;28;20451;-70
2024/01/09 08:52:21;;;;;;;2.67;1.57;;;-4.30;1.00;;;;;;5016158;28;20451;-72
2024/01/09 08:54:49;;;;;;;1.37;1.13;;;-4.30;1.00;;;;;;5014092;28;20462;-70
2024/01/09 08:57:17;;;;;;;1.27;1.00;;;-4.30;1.00;;;;;;5015527;28;20567;-70
2024/01/09 08:59:45;;;;;;;2.13;2.00;;;-4.20;1.00;;;;;;5015780;28;20447;-71
2024/01/09 09:02:14;;;;;;;7.00;1.70;;;-4.20;1.00;;;;;;5015620;28;20447;-69
2024/01/09 09:04:43;;;;;;;1.53;0.83;;;;;;;;;;5014682;28;20460;-69
2024/01/09 09:07:11;;;;;;;4.17;1.30;;;;;;;;;;5015438;28;20562;-70
2024/01/09 09:09:39;;;;;;;0.70;0.67;;;-4.10;1.00;;;;;;5015365;28;20444;-70
2024/01/09 09:12:07;;;;;;;23.23;3.97;;;;;;;;;;5015218;28;20506;-71
2024/01/09 09:14:35;;;;;;;0.70;0.50;;;-4.00;1.00;;;;;;5005010;28;20460;-70
2024/01/09 09:17:03;;;;;;;1.77;1.27;;;-4.00;1.00;;;;;;5009667;28;20464;-70
2024/01/09 09:19:33;;;;;;;2.73;2.03;;;;;;;;;;5024686;28;20463;-71
2024/01/09 09:22:01;;;;;;;3.40;1.17;;;-3.90;1.00;;;;;;5012882;28;20456;-70
2024/01/09 09:24:29;;;;;;;1.80;1.60;;;-3.80;1.00;;;;;;5015958;28;20463;-72
2024/01/09 09:26:57;;;;;;;1.30;1.20;;;-3.80;1.00;;;;;;4995732;28;20538;-69
2024/01/09 09:29:25;;;;;;;0.57;0.37;;;;;;;;;;4995094;28;20457;-69
2024/01/09 09:32:05;;;;;;;3.00;2.73;;;-3.60;1.00;;;;;;4995559;28;20480;-71
2024/01/09 09:34:35;;;;;;;1.17;0.90;;;-3.70;1.00;;;;;;4995903;28;20531;-70
2024/01/09 09:37:03;;;;;;;8.83;2.20;;;-3.50;1.00;;;;;;5004718;28;20464;-70
2024/01/09 09:39:32;;;;;;;1.57;1.47;;;;;;;;;;5003737;28;20464;-70
2024/01/09 09:42:00;;;;;;;2.63;2.40;;;-3.40;1.00;;;;;;5008007;28;20444;-70
2024/01/09 09:44:28;;;;;;;2.17;0.90;;;-3.40;1.00;;;;;;5000362;28;20445;-70
2024/01/09 09:46:56;;;;;;;0.73;0.40;;;-3.40;1.00;;;;;;5006458;28;20488;-70
2024/01/09 09:49:25;;;;;;;0.83;0.40;;;;;;;;;;5004209;28;20494;-70
2024/01/09 09:51:55;;;;;;;2.30;1.67;;;-3.30;1.00;;;;;;4995172;28;20449;-70
2024/01/09 09:54:23;;;;;;;1.17;1.07;;;;;;;;;;5003587;28;20479;-70
2024/01/09 09:56:52;;;;;;;1.67;1.10;;;;;;;;;;5001732;28;20465;-71
2024/01/09 09:59:20;;;;;;;5.53;3.33;;;-3.20;1.00;;;;;;4994781;28;20491;-71
2024/01/09 10:01:48;;;;;;;0.90;0.80;;;-3.10;1.00;;;;;;5007364;28;20520;-70
2024/01/09 10:04:30;;;;;;;0.90;0.70;;;-3.00;1.00;;;;;;5015865;28;20448;-70
2024/01/09 10:07:01;;;;;;;2.73;1.47;;;-3.00;1.00;;;;;;5007257;28;20492;-72
2024/01/09 10:09:34;;;;;;;1.60;1.10;;;-3.00;1.00;;;;;;4995858;28;20457;-71
2024/01/09 10:12:02;;;;;;;4.07;3.77;;;-2.90;1.00;;;;;;5001452;28;20454;-69
2024/01/09 10:14:30;;;;;;;4.77;1.57;;;;;;;;;;4994429;28;20500;-70
2024/01/09 10:17:03;;;;;;;2.53;0.97;;;;;;;;;;4994522;28;20568;-70
2024/01/09 10:19:32;;;;;;;0.80;0.60;;;;;;;;;;4995403;28;20543;-69
2024/01/09 10:22:01;;;;;;;2.07;0.93;;;-2.60;1.00;;;;;;5001980;28;20822;-69
2024/01/09 10:24:30;;;;;;;1.50;1.40;;;;;;;;;;5011339;28;20444;-69
2024/01/09 10:26:59;;;;;;;0.50;0.27;;;;;;;;;;5014772;28;20854;-69
2024/01/09 10:29:26;;;;;;;4.73;2.10;;;-2.50;1.00;;;;;;5014244;28;20460;-70
2024/01/09 10:31:55;;;;;;;0.50;0.20;;;-2.40;1.00;;;;;;5001951;28;20448;-70
2024/01/09 10:34:23;;;;;;;0.60;0.27;;;-2.30;1.00;;;;;;5001810;28;20907;-70
2024/01/09 10:36:53;;;;;;;2.60;1.73;;;-2.20;1.00;;;;;;4997894;28;20460;-70
2024/01/09 10:39:22;;;;;;;16.73;1.13;;;-2.10;1.00;;;;;;5005364;28;20490;-70
2024/01/09 10:41:50;;;;;;;3.37;3.17;;;;;;;;;;5007007;28;21024;-70
2024/01/09 10:44:20;;;;;;;2.40;0.97;;;-2.10;1.00;;;;;;4999428;28;20448;-70
2024/01/09 10:46:49;;;;;;;1.80;1.70;;;-2.00;1.00;;;;;;4994276;28;20484;-70
2024/01/09 10:49:17;;;;;;;0.60;0.30;;;-1.90;1.00;;;;;;4999384;28;20504;-69
2024/01/09 10:51:50;;;;;;;2.10;1.03;;;-1.90;1.00;;;;;;5015161;28;20456;-70
2024/01/09 10:54:19;;;;;;;1.23;0.60;;;-1.80;1.00;;;;;;5013191;28;20448;-69
2024/01/09 10:56:50;;;;;;;4.40;2.40;;;-1.70;1.00;;;;;;5013575;28;20474;-70
2024/01/09 10:59:20;;;;;;;0.97;0.97;;;-1.60;1.00;;;;;;5005984;28;20459;-69
2024/01/09 11:01:49;;;;;;;2.30;2.10;;;;;;;;;;4997482;28;20516;-70
2024/01/09 11:04:17;;;;;;;0.50;0.10;;;-1.50;1.00;;;;;;5000354;28;20456;-70
2024/01/09 11:06:47;;;;;;;4.67;0.77;;;-1.50;1.00;;;;;;5003501;28;21014;-69
2024/01/09 11:09:17;;;;;;;0.80;0.40;;;-1.40;1.00;;;;;;5013565;28;20450;-70
2024/01/09 11:11:47;;;;;;;0.80;0.33;;;-1.30;1.00;;;;;;5002014;28;20580;-70
2024/01/09 11:14:17;;;;;;;1.67;1.40;;;-1.40;1.00;;;;;;4994393;28;20449;-70
2024/01/09 11:16:49;;;;;;;4.83;1.07;;;-1.40;1.00;;;;;;4994217;28;20825;-70
2024/01/09 11:19:18;;;;;;;0.83;0.40;;;-1.40;1.00;;;;;;4994321;28;20673;-69
2024/01/09 11:21:46;;;;;;;2.23;2.03;;;-1.40;1.00;;;;;;5000627;28;20445;-70
2024/01/09 11:24:14;;;;;;;2.23;1.00;;;-1.40;1.00;;;;;;5000888;28;20471;-70
2024/01/09 11:26:43;;;;;;;1.17;0.77;;;;;;;;;;5012986;28;20494;-70
2024/01/09 11:29:13;;;;;;;2.60;1.73;;;;;;;;;;5013342;28;20505;-70
2024/01/09 11:31:43;;;;;;;3.47;1.43;;;-1.40;1.00;;;;;;5004661;28;20444;-70
2024/01/09 11:34:27;;;;;;;0.50;0.10;;;-1.30;1.00;;;;;;5004791;28;20448;-70
2024/01/09 11:36:57;;;;;;;4.53;1.80;;;-1.20;1.00;;;;;;5004924;28;20456;-69
2024/01/09 11:39:29;;;;;;;2.50;1.90;;;-1.20;1.00;;;;;;5008425;28;20460;-69
2024/01/09 11:41:57;;;;;;;2.60;2.00;;;;;;;;;;4997590;28;20444;-69
2024/01/09 11:44:26;;;;;;;0.70;0.50;;;;;;;;;;5004704;28;20444;-69
2024/01/09 11:46:55;;;;;;;1.50;0.40;;;-1.00;1.00;;;;;;5004485;28;20495;-70
2024/01/09 11:49:23;;;;;;;8.93;2.90;;;;;;;;;;5013658;28;20502;-69
2024/01/09 11:51:52;;;;;;;1.33;1.00;;;;;;;;;;5009709;28;20508;-70
2024/01/09 11:54:20;;;;;;;0.83;0.83;;;-0.80;1.00;;;;;;5006695;28;20975;-70
2024/01/09 11:56:49;;;;;;;3.77;1.53;;;-0.70;1.00;;;;;;4996625;28;20499;-70
2024/01/09 11:59:18;;;;;;;2.70;2.30;;;-0.70;1.00;;;;;;5000912;28;20743;-70
2024/01/09 12:01:47;;;;;;;0.50;0.10;;;-0.60;1.00;;;;;;5012729;28;21634;-70
2024/01/09 12:04:16;;;;;;;0.50;0.30;;;-0.50;1.00;;;;;;5012694;28;20456;-69
2024/01/09 12:06:44;;;;;;;2.10;1.70;;;-0.50;1.00;;;;;;5002104;28;20481;-70
2024/01/09 12:09:13;;;;;;;4.30;3.67;;;-0.50;1.00;;;;;;5001278;28;20455;-69
2024/01/09 12:11:41;;;;;;;0.97;0.87;;;;;;;;;;4994614;28;20544;-69
2024/01/09 12:14:09;;;;;;;0.50;0.20;;;-0.40;1.00;;;;;;5013022;28;20444;-70
2024/01/09 12:16:37;;;;;;;4.53;1.53;;;-0.30;1.00;;;;;;5019468;28;20471;-70
2024/01/09 12:19:04;;;;;;;0.73;0.60;;;-0.20;1.00;;;;;;5016636;28;20458;-70
2024/01/09 12:21:35;;;;;;;3.70;1.70;;;-0.20;1.00;;;;;;5003655;28;20460;-70
2024/01/09 12:24:05;;;;;;;0.80;0.70;;;-0.30;1.00;;;;;;5011485;28;20554;-70
2024/01/09 12:26:51;;;;;;;4.53;1.87;;;-0.20;1.00;;;;;;4993063;28;20496;-70
2024/01/09 12:29:20;;;;;;;8.03;4.50;;;-0.10;1.00;;;;;;4992904;28;20503;-71
2024/01/09 12:31:49;;;;;;;2.90;0.97;;;;;;;;;;4992254;28;20480;-69
2024/01/09 12:34:17;;;;;;;2.73;2.53;;;0.00;1.00;;;;;;4991650;28;20445;-70
2024/01/09 12:36:46;;;;;;;0.50;0.10;;;0.00;1.00;;;;;;5001898;28;20500;-71
2024/01/09 12:39:16;;;;;;;3.37;1.80;;;0.10;1.00;;;;;;5010948;28;20543;-70
2024/01/09 12:41:45;;;;;;;0.70;0.40;;;;;;;;;;5001133;28;20966;-69
2024/01/09 12:44:13;;;;;;;1.37;1.27;;;0.10;1.00;;;;;;4997651;28;20520;-71
2024/01/09 12:46:44;;;;;;;2.53;1.73;;;0.10;1.00;;;;;;4993092;28;20551;-71
2024/01/09 12:49:12;;;;;;;2.00;1.90;;;0.20;1.00;;;;;;4992100;28;20807;-69
2024/01/09 12:51:41;;;;;;;5.33;1.57;;;0.10;1.00;;;;;;4992124;28;20455;-70
2024/01/09 12:54:16;;;;;;;2.50;2.03;;;0.10;1.00;;;;;;4999691;28;20467;-70
2024/01/09 12:56:44;;;;;;;2.60;2.33;;;;;;;;;;5008815;28;20827;-70
2024/01/09 12:59:16;;;;;;;1.70;1.60;;;0.10;1.00;;;;;;5010915;28;20452;-70
2024/01/09 13:01:45;;;;;;;4.90;1.57;;;0.10;1.00;;;;;;5011603;28;20452;-70
2024/01/09 13:04:12;;;;;;;3.10;1.67;;;0.20;1.00;;;;;;4997673;28;20983;-70
2024/01/09 13:06:41;;;;;;;1.23;1.13;;;;;;;;;;4991293;28;20519;-69
2024/01/09 13:09:11;;;;;;;1.13;0.50;;;0.20;1.00;;;;;;4998963;28;20882;-69
2024/01/09 13:11:42;;;;;;;2.23;1.90;;;0.20;1.00;;;;;;4992426;28;20531;-69
2024/01/09 13:14:11;;;;;;;0.60;0.60;;;0.20;1.00;;;;;;5001086;28;20447;-69
2024/01/09 13:16:39;;;;;;;3.73;3.43;;;0.30;1.00;;;;;;4992133;28;20845;-69
2024/01/09 13:19:09;;;;;;;3.77;0.70;;;0.30;1.00;;;;;;5000733;28;20445;-70
2024/01/09 13:21:38;;;;;;;1.27;1.17;;;0.40;1.00;;;;;;5001453;28;20940;-70
2024/01/09 13:24:26;;;;;;;1.07;0.80;;;0.30;1.00;;;;;;5005408;28;20454;-69
2024/01/09 13:26:55;;;;;;;1.70;1.60;;;0.40;1.00;;;;;;4995197;28;21093;-70
2024/01/09 13:29:25;;;;;;;1.53;0.90;;;0.40;1.00;;;;;;4996390;28;20814;-71
2024/01/09 13:31:56;;;;;;;3.83;1.23;;;0.40;1.00;;;;;;4999743;28;20459;-71